createdAt,value
2022-12-18T00:02:01.506Z,-4.41
2022-12-18T00:04:30.525Z,-4.37
2022-12-18T00:06:58.746Z,-4.51
2022-12-18T00:09:31.300Z,-4.14
2022-12-18T00:14:44.867Z,-4.43
2022-12-18T00:17:12.811Z,-4.40
2022-12-18T00:19:40.713Z,-4.34
2022-12-18T00:22:08.649Z,-4.25
2022-12-18T00:24:36.528Z,-4.42
2022-12-18T00:27:04.453Z,-4.27
2022-12-18T00:29:32.503Z,-4.14
2022-12-18T00:32:00.624Z,-4.03
2022-12-18T00:34:28.529Z,-4.23
2022-12-18T00:36:56.476Z,-4.28
2022-12-18T00:39:24.350Z,-3.96
2022-12-18T00:42:10.917Z,-4.13
2022-12-18T00:44:38.825Z,-3.94
2022-12-18T00:47:06.722Z,-4.06
2022-12-18T00:49:35.004Z,-3.93
2022-12-18T00:52:02.967Z,-3.95
2022-12-18T00:54:30.940Z,-3.91
2022-12-18T00:56:58.925Z,-3.74
2022-12-18T00:59:26.862Z,-3.78
2022-12-18T01:01:54.856Z,-3.87
2022-12-18T01:04:22.949Z,-4.05
2022-12-18T01:06:50.820Z,-4.00
2022-12-18T01:09:18.743Z,-3.92
2022-12-18T01:11:46.733Z,-3.94
2022-12-18T01:14:14.708Z,-4.00
2022-12-18T01:16:42.838Z,-3.97
2022-12-18T01:19:11.373Z,-3.77
2022-12-18T01:21:39.309Z,-3.79
2022-12-18T01:24:07.269Z,-3.73
2022-12-18T01:26:35.213Z,-3.73
2022-12-18T01:29:03.221Z,-3.61
2022-12-18T01:31:33.703Z,-3.98
2022-12-18T01:34:05.273Z,-3.62
2022-12-18T01:36:36.168Z,-3.62
2022-12-18T01:39:11.146Z,-3.81
2022-12-18T01:41:58.386Z,-3.99
2022-12-18T01:45:03.882Z,-3.69
2022-12-18T01:47:52.172Z,-3.74
2022-12-18T01:50:28.716Z,-3.99
2022-12-18T01:53:18.619Z,-3.82
2022-12-18T01:55:53.119Z,-3.88
2022-12-18T01:58:31.469Z,-3.83
2022-12-18T02:00:59.652Z,-3.82
2022-12-18T02:03:27.720Z,-3.58
2022-12-18T02:06:06.932Z,-3.64
2022-12-18T02:09:04.694Z,-3.71
2022-12-18T02:11:44.660Z,-3.74
2022-12-18T02:14:15.931Z,-3.78
2022-12-18T02:16:46.579Z,-3.37
2022-12-18T02:19:42.666Z,-3.54
2022-12-18T02:22:44.065Z,-3.51
2022-12-18T02:25:58.595Z,-3.82
2022-12-18T02:28:39.829Z,-3.69
2022-12-18T02:31:14.478Z,-3.77
2022-12-18T02:33:46.461Z,-3.76
2022-12-18T02:36:17.643Z,-3.52
2022-12-18T02:38:48.008Z,-3.29
2022-12-18T02:41:18.280Z,-3.37
2022-12-18T02:43:50.649Z,-3.38
2022-12-18T02:46:28.668Z,-3.68
2022-12-18T02:49:17.798Z,-3.51
2022-12-18T02:52:06.536Z,-3.62
2022-12-18T02:54:57.280Z,-3.54
2022-12-18T02:57:45.894Z,-3.59
2022-12-18T03:00:20.037Z,-3.57
2022-12-18T03:03:11.729Z,-3.62
2022-12-18T03:06:01.641Z,-3.73
2022-12-18T03:08:35.506Z,-4.10
2022-12-18T03:11:10.494Z,-3.80
2022-12-18T03:13:49.205Z,-3.84
2022-12-18T03:16:24.237Z,-3.87
2022-12-18T03:19:00.145Z,-3.79
2022-12-18T03:21:37.703Z,-3.91
2022-12-18T03:24:09.260Z,-3.96
2022-12-18T03:26:43.938Z,-3.97
2022-12-18T03:29:25.460Z,-4.07
2022-12-18T03:32:01.331Z,-4.18
2022-12-18T03:34:35.929Z,-4.28
2022-12-18T03:37:08.113Z,-4.14
2022-12-18T03:39:38.866Z,-4.47
2022-12-18T03:42:30.691Z,-4.39
2022-12-18T03:45:23.261Z,-4.36
2022-12-18T03:48:04.209Z,-4.78
2022-12-18T03:50:52.261Z,-4.53
2022-12-18T03:53:34.719Z,-4.94
2022-12-18T03:56:05.040Z,-4.68
2022-12-18T03:58:40.441Z,-4.69
2022-12-18T04:01:21.158Z,-4.58
2022-12-18T04:03:51.141Z,-4.68
2022-12-18T04:06:22.753Z,-4.84
2022-12-18T04:08:51.585Z,-4.96
2022-12-18T04:11:23.038Z,-4.71
2022-12-18T04:13:51.052Z,-4.54
2022-12-18T04:16:23.464Z,-4.44
2022-12-18T04:18:55.291Z,-4.42
2022-12-18T04:21:25.711Z,-4.75
2022-12-18T04:23:54.546Z,-4.90
2022-12-18T04:26:24.347Z,-4.36
2022-12-18T04:29:05.378Z,-4.66
2022-12-18T04:31:33.531Z,-4.86
2022-12-18T04:34:01.912Z,-4.78
2022-12-18T04:36:30.225Z,-4.88
2022-12-18T04:38:58.194Z,-4.75
2022-12-18T04:41:26.633Z,-4.85
2022-12-18T04:43:55.558Z,-4.77
2022-12-18T04:46:23.594Z,-4.93
2022-12-18T04:48:51.509Z,-5.21
2022-12-18T04:51:24.765Z,-5.28
2022-12-18T04:53:54.978Z,-5.14
2022-12-18T04:56:23.027Z,-5.28
2022-12-18T04:58:50.997Z,-5.41
2022-12-18T05:01:19.526Z,-5.47
2022-12-18T05:03:47.599Z,-5.21
2022-12-18T05:06:15.792Z,-5.40
2022-12-18T05:08:44.314Z,-5.44
2022-12-18T05:11:17.439Z,-5.49
2022-12-18T05:13:47.212Z,-5.44
2022-12-18T05:16:15.660Z,-5.46
2022-12-18T05:18:43.778Z,-5.42
2022-12-18T05:21:11.678Z,-5.77
2022-12-18T05:23:40.326Z,-5.55
2022-12-18T05:26:08.870Z,-5.86
2022-12-18T05:28:37.533Z,-5.70
2022-12-18T05:31:06.402Z,-5.82
2022-12-18T05:33:36.174Z,-5.48
2022-12-18T05:36:07.771Z,-5.98
2022-12-18T05:38:37.676Z,-5.44
2022-12-18T05:41:05.976Z,-5.74
2022-12-18T05:43:36.625Z,-5.82
2022-12-18T05:46:06.620Z,-5.89
2022-12-18T05:48:34.621Z,-5.31
2022-12-18T05:51:11.264Z,-5.70
2022-12-18T05:53:39.737Z,-5.76
2022-12-18T05:56:11.067Z,-5.65
2022-12-18T05:58:39.409Z,-5.67
2022-12-18T06:01:16.432Z,-5.60
2022-12-18T06:03:45.635Z,-5.94
2022-12-18T06:06:14.804Z,-5.74
2022-12-18T06:08:46.162Z,-5.77
2022-12-18T06:11:19.411Z,-5.95
2022-12-18T06:13:47.769Z,-5.91
2022-12-18T06:16:15.757Z,-5.84
2022-12-18T06:18:43.701Z,-6.06
2022-12-18T06:21:11.997Z,-6.17
2022-12-18T06:23:40.818Z,-6.01
2022-12-18T06:26:15.062Z,-6.29
2022-12-18T06:28:43.404Z,-5.97
2022-12-18T06:31:12.079Z,-6.18
2022-12-18T06:33:41.154Z,-6.10
2022-12-18T06:36:11.921Z,-6.16
2022-12-18T06:38:42.782Z,-6.18
2022-12-18T06:41:13.935Z,-6.37
2022-12-18T06:43:42.574Z,-6.27
2022-12-18T06:46:11.428Z,-6.37
2022-12-18T06:48:39.743Z,-6.11
2022-12-18T06:51:07.661Z,-6.53
2022-12-18T06:53:35.763Z,-6.24
2022-12-18T06:56:10.703Z,-6.14
2022-12-18T06:58:39.709Z,-6.27
2022-12-18T07:01:10.828Z,-6.33
2022-12-18T07:03:41.513Z,-6.29
2022-12-18T07:06:19.297Z,-6.21
2022-12-18T07:08:48.505Z,-6.34
2022-12-18T07:11:17.720Z,-6.46
2022-12-18T07:13:46.883Z,-6.26
2022-12-18T07:16:24.670Z,-6.37
2022-12-18T07:18:55.891Z,-6.28
2022-12-18T07:21:25.718Z,-6.30
2022-12-18T07:23:53.615Z,-6.36
2022-12-18T07:26:22.922Z,-6.09
2022-12-18T07:28:51.612Z,-6.23
2022-12-18T07:31:22.164Z,-6.60
2022-12-18T07:33:51.778Z,-6.41
2022-12-18T07:36:20.138Z,-6.33
2022-12-18T07:38:49.178Z,-6.17
